createdAt,value
2022-11-27T00:00:45.924Z,1.70
2022-11-27T00:03:12.717Z,1.70
2022-11-27T00:05:41.065Z,1.70
2022-11-27T00:08:07.688Z,1.70
2022-11-27T00:10:36.396Z,1.70
2022-11-27T00:13:02.965Z,1.80
2022-11-27T00:15:29.817Z,1.80
2022-11-27T00:17:56.623Z,1.80
2022-11-27T00:20:26.154Z,1.70
2022-11-27T00:22:58.240Z,1.70
2022-11-27T00:25:24.996Z,1.60
2022-11-27T00:27:51.903Z,1.50
2022-11-27T00:30:18.735Z,1.50
2022-11-27T00:32:45.512Z,1.50
2022-11-27T00:35:12.163Z,1.50
2022-11-27T00:37:46.020Z,1.60
2022-11-27T00:40:12.960Z,1.60
2022-11-27T00:42:39.584Z,1.60
2022-11-27T00:45:06.407Z,1.70
2022-11-27T00:47:33.200Z,1.60
2022-11-27T00:49:59.839Z,1.50
2022-11-27T00:52:26.449Z,1.50
2022-11-27T00:54:53.250Z,1.60
2022-11-27T00:57:19.865Z,1.60
2022-11-27T00:59:46.477Z,1.60
2022-11-27T01:02:13.209Z,1.70
2022-11-27T01:04:40.172Z,1.70
2022-11-27T01:07:07.017Z,1.70
2022-11-27T01:09:33.656Z,1.70
2022-11-27T01:12:00.345Z,1.70
2022-11-27T01:14:27.059Z,1.60
2022-11-27T01:16:53.727Z,1.60
2022-11-27T01:19:20.464Z,1.60
2022-11-27T01:21:47.421Z,1.60
2022-11-27T01:24:15.009Z,1.60
2022-11-27T01:26:42.406Z,1.50
2022-11-27T01:29:10.429Z,1.50
2022-11-27T01:31:37.404Z,1.40
2022-11-27T01:34:05.446Z,1.40
2022-11-27T01:36:32.628Z,1.40
2022-11-27T01:38:59.646Z,1.40
2022-11-27T01:41:27.860Z,1.40
2022-11-27T01:43:57.635Z,1.40
2022-11-27T01:46:36.659Z,1.40
2022-11-27T01:49:09.723Z,1.40
2022-11-27T01:51:37.401Z,1.30
2022-11-27T01:54:04.286Z,1.30
2022-11-27T01:56:31.417Z,1.20
2022-11-27T01:58:59.016Z,1.20
2022-11-27T02:01:26.714Z,1.20
2022-11-27T02:03:54.659Z,1.20
2022-11-27T02:06:21.299Z,1.20
2022-11-27T02:08:47.908Z,1.10
2022-11-27T02:11:34.883Z,1.10
2022-11-27T02:14:01.463Z,1.10
2022-11-27T02:16:36.089Z,1.10
2022-11-27T02:19:10.867Z,1.10
2022-11-27T02:21:54.665Z,1.00
2022-11-27T02:24:27.151Z,1.00
2022-11-27T02:27:00.738Z,0.90
2022-11-27T02:29:29.673Z,0.90
2022-11-27T02:31:58.817Z,0.90
2022-11-27T02:34:28.036Z,1.00
2022-11-27T02:36:59.908Z,0.90
2022-11-27T02:39:29.997Z,0.90
2022-11-27T02:42:04.861Z,0.90
2022-11-27T02:44:33.464Z,0.90
2022-11-27T02:47:01.017Z,0.90
2022-11-27T02:49:27.914Z,0.80
2022-11-27T02:51:57.061Z,0.80
2022-11-27T02:54:31.106Z,0.70
2022-11-27T02:56:59.632Z,0.60
2022-11-27T02:59:28.320Z,0.60
2022-11-27T03:01:56.696Z,0.60
2022-11-27T03:04:26.224Z,0.60
2022-11-27T03:06:55.150Z,0.60
2022-11-27T03:09:24.239Z,0.60
2022-11-27T03:11:50.917Z,0.60
2022-11-27T03:14:17.840Z,0.50
2022-11-27T03:16:50.484Z,0.50
2022-11-27T03:19:20.164Z,0.50
2022-11-27T03:21:49.082Z,0.50
2022-11-27T03:24:16.427Z,0.50
2022-11-27T03:26:43.779Z,0.50
2022-11-27T03:29:15.225Z,0.40
2022-11-27T03:31:41.923Z,0.40
2022-11-27T03:34:08.690Z,0.30
2022-11-27T03:36:46.470Z,0.30
2022-11-27T03:39:13.340Z,0.30
2022-11-27T03:41:46.140Z,0.30
2022-11-27T03:44:28.127Z,0.20
2022-11-27T03:47:04.011Z,0.20
2022-11-27T03:49:40.500Z,0.20
2022-11-27T03:52:18.878Z,0.20
2022-11-27T03:55:04.359Z,0.10
2022-11-27T03:57:37.884Z,0.10
2022-11-27T04:00:06.203Z,0.10
2022-11-27T04:02:43.898Z,0.10
2022-11-27T04:05:11.111Z,0.10
2022-11-27T04:07:37.860Z,0.10
2022-11-27T04:10:05.027Z,0.10
2022-11-27T04:12:31.679Z,0.10
2022-11-27T04:14:58.323Z,0.10
2022-11-27T04:17:25.009Z,0.10
2022-11-27T04:19:51.695Z,0.10
2022-11-27T04:22:18.688Z,0.00
2022-11-27T04:24:45.336Z,0.00
2022-11-27T04:27:12.026Z,0.00
2022-11-27T04:29:38.748Z,0.00
2022-11-27T04:32:05.452Z,-0.10
2022-11-27T04:34:32.725Z,-0.10
2022-11-27T04:36:59.449Z,-0.20
2022-11-27T04:39:26.159Z,-0.20
2022-11-27T04:41:52.906Z,-0.30
2022-11-27T04:44:19.621Z,-0.30
2022-11-27T04:46:46.369Z,-0.20
2022-11-27T04:49:13.061Z,-0.20
2022-11-27T04:51:39.789Z,-0.30
2022-11-27T04:54:06.645Z,-0.30
2022-11-27T04:56:33.296Z,-0.30
2022-11-27T04:59:00.038Z,-0.30
2022-11-27T05:01:27.100Z,-0.30
2022-11-27T05:03:53.816Z,-0.30
2022-11-27T05:06:22.619Z,-0.30
2022-11-27T05:08:49.686Z,-0.30
2022-11-27T05:11:16.979Z,-0.30
2022-11-27T05:13:44.087Z,-0.40
2022-11-27T05:16:10.982Z,-0.40
2022-11-27T05:18:37.638Z,-0.50
2022-11-27T05:21:05.976Z,-0.50
2022-11-27T05:23:33.260Z,-0.50
2022-11-27T05:26:00.267Z,-0.50
2022-11-27T05:28:27.261Z,-0.50
2022-11-27T05:30:54.215Z,-0.50
2022-11-27T05:33:20.966Z,-0.50
2022-11-27T05:35:47.720Z,-0.60
2022-11-27T05:38:14.378Z,-0.60
2022-11-27T05:40:42.131Z,-0.60
2022-11-27T05:43:08.767Z,-0.80
2022-11-27T05:45:36.929Z,-0.80
2022-11-27T05:48:03.615Z,-0.70
2022-11-27T05:50:30.340Z,-0.70
2022-11-27T05:52:56.935Z,-0.80
2022-11-27T05:55:23.535Z,-0.80
2022-11-27T05:57:50.199Z,-0.80
2022-11-27T06:00:16.933Z,-0.80
2022-11-27T06:02:43.723Z,-0.80
2022-11-27T06:05:10.429Z,-0.80
2022-11-27T06:07:37.035Z,-0.80
2022-11-27T06:10:03.923Z,-0.80
2022-11-27T06:12:31.526Z,-0.80
2022-11-27T06:14:58.277Z,-0.70
2022-11-27T06:17:25.031Z,-0.70
2022-11-27T06:19:51.673Z,-0.70
2022-11-27T06:22:18.312Z,-0.70
2022-11-27T06:24:44.911Z,-0.70
2022-11-27T06:27:11.611Z,-0.60
2022-11-27T06:29:38.312Z,-0.60
2022-11-27T06:32:05.355Z,-0.60
2022-11-27T06:34:32.069Z,-0.50
2022-11-27T06:36:58.817Z,-0.50
2022-11-27T06:39:25.632Z,-0.40
2022-11-27T06:41:52.298Z,-0.30
2022-11-27T06:44:19.019Z,-0.30
2022-11-27T06:46:45.685Z,-0.20
2022-11-27T06:49:12.314Z,-0.20
2022-11-27T06:51:38.962Z,-0.10
2022-11-27T06:54:05.621Z,-0.10
2022-11-27T06:56:32.542Z,-0.10
2022-11-27T06:59:00.741Z,0.00
2022-11-27T07:01:28.419Z,0.00
2022-11-27T07:03:55.591Z,-0.10
2022-11-27T07:06:23.486Z,0.00
2022-11-27T07:08:50.351Z,0.00
2022-11-27T07:11:18.494Z,0.10
2022-11-27T07:13:46.069Z,0.10
2022-11-27T07:16:13.546Z,0.20
2022-11-27T07:18:41.612Z,0.20
2022-11-27T07:21:08.709Z,0.20
2022-11-27T07:23:35.678Z,0.20
2022-11-27T07:26:06.495Z,0.30
2022-11-27T07:28:33.211Z,0.40
2022-11-27T07:30:59.842Z,0.40
2022-11-27T07:33:26.523Z,0.40
2022-11-27T07:36:06.723Z,0.50
2022-11-27T07:38:33.519Z,0.60
2022-11-27T07:41:01.470Z,0.60
2022-11-27T07:43:28.656Z,0.70
2022-11-27T07:45:55.718Z,0.70
2022-11-27T07:48:22.359Z,0.70
2022-11-27T07:50:48.947Z,0.80
2022-11-27T07:53:16.771Z,0.80
2022-11-27T07:55:43.431Z,0.80
2022-11-27T07:58:10.134Z,0.70
2022-11-27T08:00:37.034Z,0.70
2022-11-27T08:03:03.776Z,0.70
2022-11-27T08:05:30.453Z,0.70
2022-11-27T08:07:59.460Z,0.60
2022-11-27T08:10:26.115Z,0.60
2022-11-27T08:12:52.749Z,0.60
2022-11-27T08:15:19.446Z,0.60
2022-11-27T08:17:46.221Z,0.60
2022-11-27T08:20:12.974Z,0.60
2022-11-27T08:22:39.600Z,0.60
2022-11-27T08:25:06.397Z,0.60
2022-11-27T08:27:33.540Z,0.60
2022-11-27T08:30:00.546Z,0.70
2022-11-27T08:32:27.197Z,0.80
2022-11-27T08:34:53.882Z,0.80
2022-11-27T08:37:21.881Z,0.90
2022-11-27T08:39:48.649Z,0.90
2022-11-27T08:42:15.302Z,1.00
2022-11-27T08:44:42.322Z,0.90
2022-11-27T08:47:09.291Z,1.00
2022-11-27T08:49:38.596Z,1.20
2022-11-27T08:52:07.288Z,1.20
2022-11-27T08:54:33.882Z,1.20
2022-11-27T08:57:00.512Z,1.30
2022-11-27T08:59:27.123Z,1.30
2022-11-27T09:01:53.755Z,1.40
2022-11-27T09:04:20.455Z,1.40
2022-11-27T09:06:48.737Z,1.40
2022-11-27T09:09:15.767Z,1.50
2022-11-27T09:11:42.674Z,1.50
2022-11-27T09:14:09.680Z,1.60
2022-11-27T09:16:36.425Z,1.70
2022-11-27T09:19:03.141Z,1.80
2022-11-27T09:21:30.738Z,1.70
2022-11-27T09:23:58.323Z,1.70
2022-11-27T09:26:25.929Z,1.70
2022-11-27T09:28:53.701Z,1.70
2022-11-27T09:31:20.737Z,1.80
2022-11-27T09:33:47.548Z,1.90
2022-11-27T09:36:16.086Z,1.90
2022-11-27T09:38:42.993Z,1.90
2022-11-27T09:41:28.591Z,2.00
2022-11-27T09:43:58.930Z,2.10
2022-11-27T09:46:29.456Z,2.20
2022-11-27T09:48:57.614Z,2.40
2022-11-27T09:51:27.368Z,2.50
2022-11-27T09:54:13.800Z,2.60
2022-11-27T09:56:42.881Z,2.80
2022-11-27T09:59:14.454Z,2.90
2022-11-27T10:01:47.659Z,3.00
2022-11-27T10:04:36.201Z,2.80
2022-11-27T10:07:24.783Z,2.70
2022-11-27T10:10:09.550Z,2.70
2022-11-27T10:12:59.962Z,2.50
2022-11-27T10:15:35.739Z,2.50
2022-11-27T10:18:14.615Z,2.50
2022-11-27T10:20:46.772Z,2.60
2022-11-27T10:23:32.211Z,2.70
2022-11-27T10:26:01.232Z,2.80
2022-11-27T10:28:27.849Z,2.70
2022-11-27T10:30:58.037Z,2.80
2022-11-27T10:33:27.251Z,2.80
2022-11-27T10:35:54.985Z,2.80
2022-11-27T10:38:23.307Z,2.80
2022-11-27T10:40:54.184Z,2.80
2022-11-27T10:43:23.937Z,2.80
2022-11-27T10:46:09.725Z,2.80
2022-11-27T10:48:36.416Z,2.80
2022-11-27T10:51:03.153Z,2.90
2022-11-27T10:53:31.885Z,2.90
2022-11-27T10:56:15.478Z,3.10
2022-11-27T10:58:42.103Z,3.10
2022-11-27T11:01:16.416Z,3.10
2022-11-27T11:03:43.441Z,3.00
2022-11-27T11:06:21.550Z,3.00
2022-11-27T11:08:49.577Z,3.10
2022-11-27T11:11:24.949Z,3.10
2022-11-27T11:13:51.737Z,3.20
2022-11-27T11:16:24.327Z,3.10
2022-11-27T11:18:52.891Z,3.10
2022-11-27T11:21:25.860Z,3.20
2022-11-27T11:24:00.250Z,3.20
2022-11-27T11:26:29.736Z,3.30
2022-11-27T11:28:58.231Z,3.40
2022-11-27T11:31:31.137Z,3.50
2022-11-27T11:34:02.799Z,3.50
2022-11-27T11:36:29.941Z,3.50
2022-11-27T11:39:04.571Z,3.50
2022-11-27T11:41:56.659Z,3.50
2022-11-27T11:44:37.336Z,3.50
2022-11-27T11:47:04.116Z,3.50
2022-11-27T11:49:33.220Z,3.60
2022-11-27T11:52:10.314Z,3.70
2022-11-27T11:54:49.610Z,3.70
2022-11-27T11:57:28.393Z,3.60
2022-11-27T11:59:55.016Z,3.60
2022-11-27T12:02:24.813Z,3.70
2022-11-27T12:04:51.515Z,3.70
2022-11-27T12:07:21.071Z,3.70
2022-11-27T12:09:51.077Z,3.80
2022-11-27T12:12:44.316Z,3.80
2022-11-27T12:15:14.036Z,3.90
2022-11-27T12:18:03.990Z,4.00
2022-11-27T12:20:33.587Z,4.00
2022-11-27T12:23:23.604Z,4.10
2022-11-27T12:25:50.238Z,4.20
2022-11-27T12:28:19.868Z,4.20
2022-11-27T12:31:06.613Z,4.20
2022-11-27T12:33:33.245Z,4.20
2022-11-27T12:36:07.656Z,4.30
2022-11-27T12:38:50.157Z,4.40
2022-11-27T12:41:35.737Z,4.40
2022-11-27T12:44:02.476Z,4.30
2022-11-27T12:46:44.959Z,4.30
2022-11-27T12:49:21.341Z,4.30
2022-11-27T12:52:17.593Z,4.40
2022-11-27T12:54:47.063Z,4.50
2022-11-27T12:57:16.919Z,4.60
2022-11-27T12:59:50.797Z,4.60
2022-11-27T13:02:27.618Z,4.50
2022-11-27T13:05:00.118Z,4.60
2022-11-27T13:07:40.189Z,4.60
2022-11-27T13:10:25.778Z,4.60
2022-11-27T13:13:25.035Z,4.60
2022-11-27T13:16:03.636Z,4.60
2022-11-27T13:18:33.796Z,4.60
2022-11-27T13:21:02.326Z,4.60
2022-11-27T13:23:32.589Z,4.60
2022-11-27T13:26:03.566Z,4.60
2022-11-27T13:28:39.994Z,4.60
2022-11-27T13:31:07.102Z,4.70
2022-11-27T13:33:42.159Z,4.70
2022-11-27T13:36:18.331Z,4.70
2022-11-27T13:38:45.274Z,4.70
2022-11-27T13:41:20.430Z,4.70
2022-11-27T13:43:47.624Z,4.70
2022-11-27T13:46:23.053Z,4.70
2022-11-27T13:49:15.930Z,4.70
2022-11-27T13:51:42.703Z,4.70
2022-11-27T13:54:13.982Z,4.60
2022-11-27T13:56:40.770Z,4.60
2022-11-27T13:59:13.463Z,4.70
2022-11-27T14:01:40.497Z,4.60
2022-11-27T14:04:09.260Z,4.60
2022-11-27T14:06:36.547Z,4.60
2022-11-27T14:09:04.649Z,4.60
2022-11-27T14:11:40.222Z,4.60
2022-11-27T14:14:15.942Z,4.50
2022-11-27T14:16:42.737Z,4.50
2022-11-27T14:19:27.185Z,4.50
2022-11-27T14:21:57.448Z,4.40
2022-11-27T14:24:33.222Z,4.50
2022-11-27T14:26:59.844Z,4.50
2022-11-27T14:29:29.229Z,4.50
2022-11-27T14:31:57.838Z,4.40
2022-11-27T14:34:28.756Z,4.40
2022-11-27T14:36:55.534Z,4.40
2022-11-27T14:39:23.435Z,4.40
2022-11-27T14:41:56.929Z,4.30
2022-11-27T14:44:23.636Z,4.30
2022-11-27T14:46:50.991Z,4.30
2022-11-27T14:49:22.206Z,4.30
2022-11-27T14:51:50.522Z,4.40
2022-11-27T14:54:20.302Z,4.40
2022-11-27T14:56:47.077Z,4.50
2022-11-27T14:59:15.219Z,4.50
2022-11-27T15:01:42.000Z,4.50
2022-11-27T15:04:27.648Z,4.50
2022-11-27T15:06:54.776Z,4.40
2022-11-27T15:09:38.166Z,4.50
2022-11-27T15:12:37.298Z,4.40
2022-11-27T15:15:08.438Z,4.40
2022-11-27T15:17:37.287Z,4.30
2022-11-27T15:20:11.835Z,4.30
2022-11-27T15:22:38.501Z,4.30
2022-11-27T15:25:07.050Z,4.30
2022-11-27T15:27:45.112Z,4.30
2022-11-27T15:30:13.781Z,4.30
2022-11-27T15:32:51.225Z,4.40
2022-11-27T15:35:36.262Z,4.40
2022-11-27T15:38:10.370Z,4.40
2022-11-27T15:40:38.671Z,4.40
2022-11-27T15:43:15.365Z,4.30
2022-11-27T15:45:43.043Z,4.30
2022-11-27T15:48:16.884Z,4.40
2022-11-27T15:50:46.868Z,4.40
2022-11-27T15:53:17.966Z,4.40
2022-11-27T15:55:44.724Z,4.40
2022-11-27T15:58:11.398Z,4.40
2022-11-27T16:00:38.212Z,4.40
2022-11-27T16:03:04.922Z,4.40
2022-11-27T16:05:31.568Z,4.40
2022-11-27T16:07:58.282Z,4.40
2022-11-27T16:10:25.022Z,4.40
2022-11-27T16:12:55.214Z,4.40
2022-11-27T16:15:23.559Z,4.40
2022-11-27T16:17:51.021Z,4.40
2022-11-27T16:20:17.691Z,4.40
2022-11-27T16:22:44.417Z,4.50
2022-11-27T16:25:11.155Z,4.50
2022-11-27T16:27:38.991Z,4.50
2022-11-27T16:30:07.176Z,4.50
2022-11-27T16:32:46.093Z,4.50
2022-11-27T16:35:12.794Z,4.50
2022-11-27T16:37:41.020Z,4.50
2022-11-27T16:40:07.877Z,4.50
2022-11-27T16:42:34.577Z,4.50
2022-11-27T16:45:01.211Z,4.50
2022-11-27T16:47:33.585Z,4.40
2022-11-27T16:50:00.714Z,4.40
2022-11-27T16:52:27.411Z,4.40
2022-11-27T16:54:54.599Z,4.40
2022-11-27T16:57:21.206Z,4.40
2022-11-27T16:59:50.733Z,4.40
2022-11-27T17:02:17.496Z,4.40
2022-11-27T17:04:44.385Z,4.30
2022-11-27T17:07:11.249Z,4.30
2022-11-27T17:09:38.639Z,4.40
2022-11-27T17:12:05.424Z,4.40
2022-11-27T17:14:32.143Z,4.40
2022-11-27T17:16:58.833Z,4.40
2022-11-27T17:19:27.109Z,4.40
2022-11-27T17:21:53.945Z,4.40
2022-11-27T17:24:20.804Z,4.40
2022-11-27T17:26:49.332Z,4.40
2022-11-27T17:29:17.206Z,4.30
2022-11-27T17:31:44.095Z,4.30
2022-11-27T17:34:11.598Z,4.20
2022-11-27T17:36:38.832Z,4.20
2022-11-27T17:39:05.814Z,4.20
2022-11-27T17:41:32.873Z,4.20
2022-11-27T17:43:59.657Z,4.20
2022-11-27T17:46:27.479Z,4.20
2022-11-27T17:48:54.657Z,4.10
2022-11-27T17:51:21.593Z,4.10
2022-11-27T17:53:54.431Z,4.00
2022-11-27T17:56:21.265Z,4.00
2022-11-27T17:58:48.116Z,3.90
2022-11-27T18:01:16.735Z,3.90
2022-11-27T18:03:43.752Z,3.90
2022-11-27T18:06:10.490Z,3.80
2022-11-27T18:08:37.085Z,3.70
2022-11-27T18:11:07.985Z,3.60
2022-11-27T18:13:34.579Z,3.50
2022-11-27T18:16:12.040Z,3.50
2022-11-27T18:18:39.093Z,3.40
2022-11-27T18:21:15.280Z,3.30
2022-11-27T18:24:14.393Z,3.30
2022-11-27T18:26:52.631Z,3.20
2022-11-27T18:29:18.316Z,3.10
2022-11-27T18:31:45.982Z,2.90
2022-11-27T18:34:12.758Z,2.90
2022-11-27T18:36:39.404Z,2.80
2022-11-27T18:39:06.174Z,2.70
2022-11-27T18:41:32.917Z,2.70
2022-11-27T18:44:00.675Z,2.60
2022-11-27T18:46:27.397Z,2.60
2022-11-27T18:48:55.212Z,2.50
2022-11-27T18:51:23.205Z,2.50
2022-11-27T18:53:50.647Z,2.40
2022-11-27T18:56:18.717Z,2.40
2022-11-27T18:58:46.671Z,2.30
2022-11-27T19:01:14.942Z,2.30
2022-11-27T19:03:43.045Z,2.20
2022-11-27T19:06:11.211Z,2.10
2022-11-27T19:08:38.129Z,2.10
2022-11-27T19:11:09.466Z,2.00
2022-11-27T19:13:36.443Z,1.90
2022-11-27T19:16:07.367Z,1.90
2022-11-27T19:18:34.720Z,1.90
2022-11-27T19:21:01.354Z,1.90
2022-11-27T19:23:28.067Z,1.80
2022-11-27T19:25:55.032Z,1.80
2022-11-27T19:28:21.747Z,1.80
2022-11-27T19:30:50.537Z,1.70
2022-11-27T19:33:17.282Z,1.70
2022-11-27T19:35:43.936Z,1.70
2022-11-27T19:38:10.626Z,1.70
2022-11-27T19:40:38.703Z,1.60
2022-11-27T19:43:06.893Z,1.60
2022-11-27T19:45:34.943Z,1.50
2022-11-27T19:48:01.754Z,1.40
2022-11-27T19:50:28.747Z,1.40
2022-11-27T19:52:55.568Z,1.40
2022-11-27T19:55:22.256Z,1.30
2022-11-27T19:57:48.934Z,1.20
2022-11-27T20:00:15.703Z,1.20
2022-11-27T20:02:42.482Z,1.10
2022-11-27T20:05:13.363Z,1.20
2022-11-27T20:07:40.083Z,1.10
2022-11-27T20:10:06.993Z,1.10
2022-11-27T20:12:38.875Z,1.10
2022-11-27T20:15:06.924Z,1.10
2022-11-27T20:17:33.744Z,1.10
2022-11-27T20:20:01.052Z,1.10
2022-11-27T20:22:28.543Z,1.10
2022-11-27T20:25:17.719Z,1.10
2022-11-27T20:27:41.744Z,1.10
2022-11-27T20:30:08.731Z,1.00
2022-11-27T20:32:35.406Z,1.10
2022-11-27T20:35:02.011Z,1.10
2022-11-27T20:37:29.057Z,1.10
2022-11-27T20:39:55.685Z,1.10
2022-11-27T20:42:23.091Z,1.20
2022-11-27T20:44:49.834Z,1.20
2022-11-27T20:47:16.550Z,1.20
2022-11-27T20:49:43.746Z,1.30
2022-11-27T20:52:11.458Z,1.30
2022-11-27T20:54:38.132Z,1.30
2022-11-27T20:57:05.141Z,1.30
2022-11-27T20:59:31.742Z,1.30
2022-11-27T21:02:01.587Z,1.40
2022-11-27T21:04:28.450Z,1.40
2022-11-27T21:06:56.526Z,1.40
2022-11-27T21:09:23.993Z,1.30
2022-11-27T21:11:51.164Z,1.30
2022-11-27T21:14:21.134Z,1.30
2022-11-27T21:16:49.141Z,1.30
2022-11-27T21:19:20.618Z,1.30
2022-11-27T21:21:47.527Z,1.30
2022-11-27T21:24:14.681Z,1.30
2022-11-27T21:26:41.847Z,1.30
2022-11-27T21:29:09.600Z,1.30
2022-11-27T21:31:37.962Z,1.40
2022-11-27T21:34:11.509Z,1.40
2022-11-27T21:36:38.469Z,1.40
2022-11-27T21:39:08.752Z,1.40
2022-11-27T21:41:35.498Z,1.40
2022-11-27T21:44:03.117Z,1.40
2022-11-27T21:46:30.411Z,1.40
2022-11-27T21:48:58.257Z,1.30
2022-11-27T21:51:26.287Z,1.30
2022-11-27T21:53:53.986Z,1.30
2022-11-27T21:56:22.265Z,1.30
2022-11-27T21:58:48.952Z,1.20
2022-11-27T22:01:16.730Z,1.30
2022-11-27T22:03:43.760Z,1.20
2022-11-27T22:06:15.089Z,1.20
2022-11-27T22:08:42.712Z,1.20
2022-11-27T22:11:10.425Z,1.10
2022-11-27T22:13:37.360Z,1.10
2022-11-27T22:16:24.356Z,1.00
2022-11-27T22:18:55.494Z,1.00
2022-11-27T22:21:22.837Z,0.90
2022-11-27T22:23:49.517Z,0.90
2022-11-27T22:26:17.755Z,0.90
2022-11-27T22:28:44.902Z,0.90
2022-11-27T22:31:15.514Z,0.90
2022-11-27T22:33:42.938Z,0.90
2022-11-27T22:36:12.827Z,0.80
2022-11-27T22:38:40.446Z,0.80
2022-11-27T22:41:07.560Z,0.80
2022-11-27T22:43:35.405Z,0.80
2022-11-27T22:46:09.755Z,0.70
2022-11-27T22:48:36.682Z,0.70
2022-11-27T22:51:03.627Z,0.70
2022-11-27T22:53:30.456Z,0.60
2022-11-27T22:55:57.268Z,0.60
2022-11-27T22:58:23.879Z,0.50
2022-11-27T23:00:56.967Z,0.40
2022-11-27T23:03:23.625Z,0.40
2022-11-27T23:05:50.436Z,0.40
2022-11-27T23:08:18.869Z,0.40
2022-11-27T23:10:48.994Z,0.40
2022-11-27T23:13:15.668Z,0.50
2022-11-27T23:15:42.753Z,0.50
2022-11-27T23:18:09.781Z,0.50
2022-11-27T23:20:40.575Z,0.50
2022-11-27T23:23:07.361Z,0.50
2022-11-27T23:25:34.093Z,0.50
2022-11-27T23:28:00.835Z,0.40
2022-11-27T23:30:27.486Z,0.40
2022-11-27T23:32:54.130Z,0.30
2022-11-27T23:35:20.838Z,0.30
2022-11-27T23:37:47.530Z,0.20
2022-11-27T23:40:15.011Z,0.20
2022-11-27T23:42:42.744Z,0.20
2022-11-27T23:45:09.706Z,0.20
2022-11-27T23:47:36.397Z,0.10
2022-11-27T23:50:03.517Z,0.10
2022-11-27T23:52:30.255Z,0.10
2022-11-27T23:54:56.944Z,0.10
2022-11-27T23:57:23.614Z,0.10
2022-11-27T23:59:50.272Z,0.20
